createdAt,value
2018-07-04T00:01:51.893Z,20.70
2018-07-04T00:04:32.992Z,20.70
2018-07-04T00:07:13.242Z,20.50
2018-07-04T00:09:53.355Z,20.50
2018-07-04T00:12:33.539Z,20.40
2018-07-04T00:15:13.895Z,20.50
2018-07-04T00:17:55.404Z,20.40
2018-07-04T00:20:39.745Z,20.40
2018-07-04T00:23:19.965Z,20.40
2018-07-04T00:26:00.201Z,20.30
2018-07-04T00:28:40.226Z,20.30
2018-07-04T00:31:20.354Z,20.20
2018-07-04T00:34:00.831Z,20.20
2018-07-04T00:36:40.970Z,20.10
2018-07-04T00:39:21.146Z,20.10
2018-07-04T00:42:01.274Z,20.00
2018-07-04T00:44:41.527Z,20.00
2018-07-04T00:47:21.609Z,19.90
2018-07-04T00:50:01.819Z,19.90
2018-07-04T00:52:42.030Z,19.80
2018-07-04T00:55:22.258Z,19.80
2018-07-04T00:58:02.573Z,19.70
2018-07-04T01:00:42.927Z,19.70
2018-07-04T01:03:23.188Z,19.70
2018-07-04T01:08:37.723Z,19.50
2018-07-04T01:11:17.807Z,19.50
2018-07-04T01:13:57.949Z,19.50
2018-07-04T01:16:38.090Z,19.50
2018-07-04T01:19:18.518Z,19.50
2018-07-04T01:21:58.753Z,19.50
2018-07-04T01:24:39.066Z,19.40
2018-07-04T01:27:19.267Z,19.40
2018-07-04T01:29:59.405Z,19.40
2018-07-04T01:32:39.638Z,19.30
2018-07-04T01:35:19.861Z,19.30
2018-07-04T01:38:00.211Z,19.30
2018-07-04T01:40:40.486Z,19.20
2018-07-04T01:43:20.539Z,19.20
2018-07-04T01:46:00.750Z,19.20
2018-07-04T01:48:40.965Z,19.20
2018-07-04T01:51:21.034Z,19.10
2018-07-04T01:54:01.444Z,19.00
2018-07-04T01:56:41.740Z,18.90
2018-07-04T01:59:21.837Z,18.80
2018-07-04T02:02:02.008Z,18.80
2018-07-04T02:04:42.197Z,18.80
2018-07-04T02:07:22.404Z,18.80
2018-07-04T02:12:37.591Z,18.80
2018-07-04T02:17:51.980Z,18.70
2018-07-04T02:20:32.129Z,18.80
2018-07-04T02:23:12.312Z,18.70
2018-07-04T02:25:52.616Z,18.70
2018-07-04T02:31:06.799Z,18.70
2018-07-04T02:33:46.877Z,18.60
2018-07-04T02:36:26.994Z,18.60
2018-07-04T02:41:41.413Z,18.50
2018-07-04T02:44:21.417Z,18.50
2018-07-04T02:47:01.610Z,18.40
2018-07-04T02:49:41.713Z,18.50
2018-07-04T02:52:21.820Z,18.40
2018-07-04T02:55:02.168Z,18.40
2018-07-04T02:57:42.345Z,18.40
2018-07-04T03:00:22.619Z,18.40
2018-07-04T03:03:02.632Z,18.30
2018-07-04T03:05:42.889Z,18.30
2018-07-04T03:08:22.957Z,18.20
2018-07-04T03:11:03.124Z,18.20
2018-07-04T03:13:43.282Z,18.20
2018-07-04T03:16:23.455Z,18.20
2018-07-04T03:19:03.736Z,18.20
2018-07-04T03:21:44.032Z,18.20
2018-07-04T03:24:24.385Z,18.20
2018-07-04T03:27:04.582Z,18.10
2018-07-04T03:29:44.886Z,18.10
2018-07-04T03:32:25.148Z,18.10
2018-07-04T03:35:05.550Z,18.10
2018-07-04T03:37:45.763Z,18.00
2018-07-04T03:40:25.950Z,18.00
2018-07-04T03:43:06.071Z,18.00
2018-07-04T03:48:20.333Z,17.90
2018-07-04T03:53:34.485Z,17.90
2018-07-04T03:56:14.751Z,18.00
2018-07-04T03:58:54.967Z,18.00
2018-07-04T04:01:35.164Z,18.10
2018-07-04T04:06:49.683Z,18.00
2018-07-04T04:09:29.976Z,18.10
2018-07-04T04:12:10.298Z,18.10
2018-07-04T04:14:50.362Z,18.00
2018-07-04T04:17:30.524Z,18.00
2018-07-04T04:20:10.535Z,18.00
2018-07-04T04:22:50.782Z,18.10
2018-07-04T04:25:30.765Z,18.10
2018-07-04T04:28:11.116Z,18.00
2018-07-04T04:30:51.342Z,18.10
2018-07-04T04:33:31.645Z,18.10
2018-07-04T04:36:11.815Z,18.10
2018-07-04T04:38:51.916Z,18.20
2018-07-04T04:41:31.978Z,18.20
2018-07-04T04:44:12.673Z,18.20
2018-07-04T04:46:53.019Z,18.30
2018-07-04T04:49:33.085Z,18.30
2018-07-04T04:52:13.251Z,18.30
2018-07-04T04:54:53.431Z,18.30
2018-07-04T04:57:33.493Z,18.30
2018-07-04T05:02:47.707Z,18.50
2018-07-04T05:05:27.988Z,18.40
2018-07-04T05:08:08.109Z,18.50
2018-07-04T05:10:48.404Z,18.50
2018-07-04T05:13:28.533Z,18.40
2018-07-04T05:16:08.809Z,18.50
2018-07-04T05:18:49.206Z,18.50
2018-07-04T05:26:37.803Z,18.60
2018-07-04T05:31:52.224Z,19.30
2018-07-04T05:34:32.491Z,19.70
2018-07-04T05:37:12.705Z,20.30
2018-07-04T05:39:53.018Z,22.10
2018-07-04T05:42:33.120Z,24.20
2018-07-04T05:45:13.482Z,26.10
2018-07-04T05:47:53.926Z,27.50
2018-07-04T05:50:34.071Z,28.70
2018-07-04T05:55:48.501Z,30.00
2018-07-04T05:58:29.146Z,30.60
2018-07-04T06:01:09.310Z,31.50
2018-07-04T06:03:49.489Z,32.20
2018-07-04T06:06:29.646Z,32.70
2018-07-04T06:09:09.993Z,33.10
2018-07-04T06:11:50.250Z,33.60
2018-07-04T06:14:30.459Z,34.00
2018-07-04T06:17:10.474Z,34.50
2018-07-04T06:19:50.828Z,34.70
2018-07-04T06:22:30.789Z,34.50
2018-07-04T06:25:11.084Z,35.10
2018-07-04T06:27:51.090Z,35.00
2018-07-04T06:30:31.253Z,35.20
2018-07-04T06:33:11.406Z,35.90
2018-07-04T06:35:51.455Z,36.10
2018-07-04T06:38:19.335Z,37.00
2018-07-04T06:40:47.077Z,37.10
2018-07-04T06:45:43.337Z,37.40
2018-07-04T06:48:11.085Z,37.90
2018-07-04T06:50:38.869Z,38.30
2018-07-04T06:53:06.647Z,38.60
2018-07-04T06:55:34.423Z,38.70
2018-07-04T07:00:30.144Z,38.90
2018-07-04T07:05:44.549Z,38.90
2018-07-04T07:08:24.802Z,38.80
2018-07-04T07:11:05.010Z,39.10
2018-07-04T07:13:45.348Z,39.80
2018-07-04T07:16:25.457Z,40.50
2018-07-04T07:19:05.500Z,40.90
2018-07-04T07:21:45.714Z,40.80
2018-07-04T07:24:25.849Z,41.00
2018-07-04T07:27:06.105Z,41.60
2018-07-04T07:29:46.154Z,42.00
2018-07-04T07:32:26.447Z,42.20
2018-07-04T07:35:06.556Z,42.10
2018-07-04T07:37:46.776Z,42.30
2018-07-04T07:40:26.902Z,42.10
2018-07-04T07:43:07.289Z,42.20
2018-07-04T07:48:21.550Z,42.70
2018-07-04T07:51:01.712Z,43.20
2018-07-04T07:53:42.010Z,43.70
2018-07-04T07:56:22.162Z,44.10
2018-07-04T07:59:02.471Z,44.10
2018-07-04T08:01:42.584Z,44.10
2018-07-04T08:04:22.978Z,44.10
2018-07-04T08:07:03.041Z,44.30
2018-07-04T08:09:43.314Z,44.40
2018-07-04T08:12:23.591Z,44.10
2018-07-04T08:17:37.800Z,45.00
2018-07-04T08:20:18.027Z,45.20
2018-07-04T08:22:58.316Z,45.60
2018-07-04T08:25:38.617Z,46.10
2018-07-04T08:28:18.789Z,46.20
2018-07-04T08:30:59.032Z,46.50
2018-07-04T08:33:39.139Z,46.50
2018-07-04T08:36:19.373Z,46.50
2018-07-04T08:38:59.606Z,46.80
2018-07-04T08:41:39.672Z,46.90
2018-07-04T08:44:19.955Z,47.60
2018-07-04T08:47:00.196Z,47.40
2018-07-04T08:49:40.511Z,47.40
2018-07-04T08:52:20.697Z,47.70
2018-07-04T08:55:00.778Z,48.00
2018-07-04T08:57:41.009Z,48.50
2018-07-04T09:00:21.130Z,48.50
2018-07-04T09:03:01.553Z,48.90
2018-07-04T09:05:41.765Z,48.50
2018-07-04T09:08:21.958Z,48.40
2018-07-04T09:11:02.233Z,48.20
2018-07-04T09:13:42.493Z,48.10
2018-07-04T09:16:22.545Z,48.30
2018-07-04T09:19:02.670Z,48.70
2018-07-04T09:21:42.750Z,49.50
2018-07-04T09:24:22.949Z,48.70
2018-07-04T09:27:03.221Z,48.70
2018-07-04T09:29:43.449Z,48.90
2018-07-04T09:32:23.695Z,49.20
2018-07-04T09:35:03.912Z,49.70
2018-07-04T09:37:44.065Z,49.90
2018-07-04T09:40:24.182Z,50.60
2018-07-04T09:43:04.244Z,50.40
2018-07-04T09:48:18.666Z,50.00
2018-07-04T09:50:59.170Z,50.50
2018-07-04T09:56:13.543Z,50.60
2018-07-04T10:04:04.085Z,50.50
2018-07-04T10:06:45.026Z,50.50
2018-07-04T10:09:25.347Z,50.20
2018-07-04T10:12:05.650Z,50.00
2018-07-04T10:14:45.677Z,50.20
2018-07-04T10:17:25.942Z,50.20
2018-07-04T10:20:06.145Z,50.00
2018-07-04T10:22:46.307Z,50.10
2018-07-04T10:25:26.570Z,50.10
2018-07-04T10:28:06.955Z,49.90
2018-07-04T10:30:47.235Z,49.50
2018-07-04T10:33:27.471Z,48.90
2018-07-04T10:36:07.648Z,49.10
2018-07-04T10:38:47.649Z,48.80
2018-07-04T10:41:27.813Z,48.70
2018-07-04T10:44:08.051Z,48.50
2018-07-04T10:46:48.346Z,48.50
2018-07-04T10:49:28.474Z,48.30
2018-07-04T10:52:08.738Z,48.00
2018-07-04T10:54:49.140Z,47.60
2018-07-04T10:57:29.262Z,47.20
2018-07-04T11:00:09.516Z,47.10
2018-07-04T11:02:49.816Z,46.50
2018-07-04T11:05:29.978Z,46.20
2018-07-04T11:08:10.332Z,46.10
2018-07-04T11:10:50.514Z,45.70
2018-07-04T11:13:30.733Z,45.50
2018-07-04T11:16:10.970Z,45.00
2018-07-04T11:18:51.048Z,44.80
2018-07-04T11:21:31.298Z,44.30
2018-07-04T11:24:11.337Z,44.30
2018-07-04T11:26:51.476Z,44.30
2018-07-04T11:29:31.769Z,44.40
2018-07-04T11:32:11.882Z,44.40
2018-07-04T11:34:52.059Z,44.40
2018-07-04T11:37:32.334Z,44.60
2018-07-04T11:40:12.560Z,44.40
2018-07-04T11:42:52.713Z,44.30
2018-07-04T11:45:32.939Z,44.10
2018-07-04T11:48:00.709Z,44.10
2018-07-04T11:50:28.482Z,43.90
2018-07-04T11:52:56.258Z,43.60
2018-07-04T11:55:24.040Z,43.30
2018-07-04T11:57:51.861Z,43.20
2018-07-04T12:02:47.565Z,42.60
2018-07-04T12:05:27.828Z,42.40
2018-07-04T12:07:55.547Z,42.20
2018-07-04T12:10:23.314Z,42.10
2018-07-04T12:12:51.090Z,41.80
2018-07-04T12:15:18.872Z,41.60
2018-07-04T12:17:46.657Z,41.30
2018-07-04T12:20:14.416Z,41.00
2018-07-04T12:22:42.191Z,40.80
2018-07-04T12:27:37.910Z,40.20
2018-07-04T12:30:05.657Z,39.90
2018-07-04T12:32:33.428Z,39.60
2018-07-04T12:35:01.194Z,39.50
2018-07-04T12:37:29.005Z,39.50
2018-07-04T12:39:56.737Z,39.60
2018-07-04T12:42:24.521Z,39.70
2018-07-04T12:44:52.275Z,39.70
2018-07-04T12:52:15.964Z,39.10
2018-07-04T12:54:49.262Z,39.10
2018-07-04T12:57:29.489Z,39.10
2018-07-04T13:00:09.492Z,39.00
2018-07-04T13:02:49.619Z,39.00
2018-07-04T13:05:29.618Z,39.10
2018-07-04T13:08:09.803Z,39.20
2018-07-04T13:10:49.932Z,39.10
2018-07-04T13:13:30.114Z,38.90
2018-07-04T13:16:10.292Z,38.90
2018-07-04T13:18:50.445Z,38.70
2018-07-04T13:21:30.463Z,38.30
2018-07-04T13:24:10.766Z,37.90
2018-07-04T13:31:59.087Z,37.50
2018-07-04T13:34:39.386Z,37.40
2018-07-04T13:37:19.637Z,37.60
2018-07-04T13:39:59.966Z,37.70
2018-07-04T13:42:40.059Z,37.80
2018-07-04T13:45:20.214Z,37.70
2018-07-04T13:48:00.344Z,37.70
2018-07-04T13:50:40.400Z,37.70
2018-07-04T13:53:20.546Z,37.50
2018-07-04T13:56:00.678Z,37.30
2018-07-04T13:58:40.801Z,37.00
2018-07-04T14:03:55.063Z,36.70
2018-07-04T14:06:35.167Z,36.60
2018-07-04T14:09:15.348Z,36.50
2018-07-04T14:11:55.611Z,36.50
2018-07-04T14:14:35.648Z,36.50
2018-07-04T14:17:15.825Z,36.40
2018-07-04T14:19:55.870Z,36.30
2018-07-04T14:22:36.083Z,36.10
2018-07-04T14:25:16.046Z,35.80
2018-07-04T14:27:56.150Z,35.80
2018-07-04T14:30:36.573Z,35.60
2018-07-04T14:33:16.728Z,35.60
2018-07-04T14:35:56.997Z,35.50
2018-07-04T14:38:37.234Z,35.40
2018-07-04T14:41:17.847Z,35.40
2018-07-04T14:43:58.002Z,35.30
2018-07-04T14:49:12.169Z,35.20
2018-07-04T14:54:26.322Z,35.10
2018-07-04T14:57:06.524Z,35.20
2018-07-04T14:59:46.604Z,35.30
2018-07-04T15:02:26.563Z,35.30
2018-07-04T15:05:06.626Z,35.30
2018-07-04T15:07:46.816Z,35.20
2018-07-04T15:10:26.954Z,35.20
2018-07-04T15:13:07.114Z,35.20
2018-07-04T15:15:47.341Z,35.20
2018-07-04T15:18:27.373Z,35.20
2018-07-04T15:21:07.789Z,35.30
2018-07-04T15:23:47.949Z,35.20
2018-07-04T15:29:02.408Z,35.10
2018-07-04T15:31:42.507Z,34.90
2018-07-04T15:34:23.113Z,34.90
2018-07-04T15:37:03.333Z,34.80
2018-07-04T15:39:43.645Z,34.70
2018-07-04T15:44:58.029Z,34.80
2018-07-04T15:47:38.187Z,34.70
2018-07-04T15:50:18.552Z,34.70
2018-07-04T15:52:58.885Z,34.70
2018-07-04T15:58:13.180Z,34.40
2018-07-04T16:00:53.442Z,34.30
2018-07-04T16:03:33.466Z,34.30
2018-07-04T16:08:47.709Z,34.30
2018-07-04T16:11:27.854Z,34.20
2018-07-04T16:14:08.111Z,34.00
2018-07-04T16:16:49.434Z,34.00
2018-07-04T16:19:29.594Z,33.90
2018-07-04T16:22:09.922Z,33.90
2018-07-04T16:24:50.267Z,34.00
2018-07-04T16:27:30.408Z,34.00
2018-07-04T16:30:10.553Z,34.00
2018-07-04T16:32:50.854Z,33.90
2018-07-04T16:35:30.975Z,33.80
2018-07-04T16:38:11.206Z,33.80
2018-07-04T16:40:51.313Z,33.70
2018-07-04T16:43:31.583Z,33.50
2018-07-04T16:46:11.813Z,33.50
2018-07-04T16:48:51.831Z,33.20
2018-07-04T16:54:06.230Z,33.20
2018-07-04T16:56:46.367Z,33.00
2018-07-04T16:59:26.777Z,32.80
2018-07-04T17:04:40.860Z,32.70
2018-07-04T17:07:20.945Z,32.70
2018-07-04T17:10:01.116Z,32.60
2018-07-04T17:12:41.317Z,32.50
2018-07-04T17:15:21.401Z,32.50
2018-07-04T17:18:01.572Z,32.30
2018-07-04T17:20:41.861Z,32.30
2018-07-04T17:23:22.020Z,32.20
2018-07-04T17:26:02.201Z,32.10
2018-07-04T17:28:42.462Z,32.00
2018-07-04T17:31:22.493Z,32.00
2018-07-04T17:34:02.574Z,31.90
2018-07-04T17:36:42.777Z,31.90
2018-07-04T17:39:22.998Z,31.90
2018-07-04T17:42:03.369Z,31.80
2018-07-04T17:44:43.613Z,31.80
2018-07-04T17:47:23.994Z,31.70
2018-07-04T17:50:04.027Z,31.70
2018-07-04T17:52:44.230Z,31.70
2018-07-04T17:55:24.483Z,31.70
2018-07-04T17:58:04.619Z,31.60
2018-07-04T18:00:44.779Z,31.60
2018-07-04T18:03:24.933Z,31.60
2018-07-04T18:06:05.225Z,31.50
2018-07-04T18:08:45.246Z,31.50
2018-07-04T18:11:25.501Z,31.40
2018-07-04T18:14:05.687Z,31.40
2018-07-04T18:16:45.914Z,31.30
2018-07-04T18:19:26.170Z,31.20
2018-07-04T18:22:06.284Z,31.20
2018-07-04T18:24:46.648Z,31.10
2018-07-04T18:30:02.427Z,31.00
2018-07-04T18:35:16.591Z,30.90
2018-07-04T18:37:56.896Z,30.80
2018-07-04T18:40:37.002Z,30.80
2018-07-04T18:43:17.296Z,30.80
2018-07-04T18:45:57.272Z,30.70
2018-07-04T18:48:37.510Z,30.60
2018-07-04T18:51:17.701Z,30.60
2018-07-04T18:53:58.057Z,30.50
2018-07-04T18:56:38.098Z,30.40
2018-07-04T18:59:18.542Z,30.30
2018-07-04T19:01:58.685Z,30.30
2018-07-04T19:04:39.146Z,30.30
2018-07-04T19:07:20.103Z,30.20
2018-07-04T19:12:35.643Z,30.10
2018-07-04T19:15:16.414Z,29.90
2018-07-04T19:17:56.797Z,29.90
2018-07-04T19:20:37.019Z,29.80
2018-07-04T19:23:17.326Z,29.70
2018-07-04T19:25:57.974Z,29.60
2018-07-04T19:28:38.329Z,29.50
2018-07-04T19:31:18.670Z,29.40
2018-07-04T19:33:59.867Z,29.30
2018-07-04T19:36:40.062Z,29.20
2018-07-04T19:39:20.857Z,29.20
2018-07-04T19:42:01.180Z,29.10
2018-07-04T19:44:41.742Z,29.00
2018-07-04T19:49:57.122Z,28.90
2018-07-04T19:52:38.360Z,28.80
2018-07-04T19:55:18.735Z,28.70
2018-07-04T19:57:58.876Z,28.70
2018-07-04T20:00:42.946Z,28.60
2018-07-04T20:03:24.130Z,28.50
2018-07-04T20:06:04.394Z,28.50
2018-07-04T20:08:45.890Z,28.50
2018-07-04T20:11:26.551Z,28.40
2018-07-04T20:14:10.200Z,28.40
2018-07-04T20:16:50.578Z,28.30
2018-07-04T20:19:30.928Z,28.30
2018-07-04T20:22:11.070Z,28.20
2018-07-04T20:27:25.557Z,28.00
2018-07-04T20:32:43.370Z,27.90
2018-07-04T20:35:27.102Z,27.90
2018-07-04T20:38:07.097Z,27.80
2018-07-04T20:40:47.214Z,27.80
2018-07-04T20:43:27.515Z,27.70
2018-07-04T20:46:07.511Z,27.60
2018-07-04T20:48:47.805Z,27.50
2018-07-04T20:51:27.825Z,27.40
2018-07-04T20:54:07.940Z,27.40
2018-07-04T20:56:48.145Z,27.30
2018-07-04T20:59:28.292Z,27.30
2018-07-04T21:02:08.452Z,27.20
2018-07-04T21:04:48.609Z,27.20
2018-07-04T21:07:28.822Z,27.20
2018-07-04T21:10:09.134Z,27.10
2018-07-04T21:12:49.466Z,27.10
2018-07-04T21:15:29.751Z,27.10
2018-07-04T21:18:09.891Z,27.00
2018-07-04T21:20:50.233Z,26.90
2018-07-04T21:23:30.345Z,26.90
2018-07-04T21:28:44.877Z,26.80
2018-07-04T21:31:25.054Z,26.80
2018-07-04T21:34:05.313Z,26.80
2018-07-04T21:36:45.413Z,26.80
2018-07-04T21:39:25.532Z,26.70
2018-07-04T21:42:05.646Z,26.70
2018-07-04T21:44:45.710Z,26.60
2018-07-04T21:47:26.810Z,26.60
2018-07-04T21:50:06.987Z,26.60
2018-07-04T21:52:47.151Z,26.60
2018-07-04T21:55:27.470Z,26.50
2018-07-04T21:58:07.493Z,26.50
2018-07-04T22:00:47.653Z,26.50
2018-07-04T22:03:27.930Z,26.50
2018-07-04T22:06:08.068Z,26.50
2018-07-04T22:08:52.665Z,26.50
2018-07-04T22:14:07.067Z,26.40
2018-07-04T22:16:47.312Z,26.40
2018-07-04T22:19:27.509Z,26.40
2018-07-04T22:22:07.601Z,26.40
2018-07-04T22:24:47.885Z,26.30
2018-07-04T22:27:27.974Z,26.30
2018-07-04T22:30:08.244Z,26.20
2018-07-04T22:32:48.618Z,26.20
2018-07-04T22:35:28.762Z,26.10
2018-07-04T22:38:08.911Z,26.10
2018-07-04T22:40:49.051Z,26.00
2018-07-04T22:43:29.640Z,26.00
2018-07-04T22:46:09.974Z,26.00
2018-07-04T22:48:50.013Z,26.00
2018-07-04T22:51:30.225Z,25.90
2018-07-04T22:54:10.353Z,25.90
2018-07-04T22:56:51.122Z,25.90
2018-07-04T22:59:31.362Z,25.80
2018-07-04T23:02:11.531Z,25.80
2018-07-04T23:04:51.669Z,25.80
2018-07-04T23:07:31.743Z,25.70
2018-07-04T23:10:11.825Z,25.60
2018-07-04T23:12:51.922Z,25.60
2018-07-04T23:15:32.023Z,25.60
2018-07-04T23:18:12.097Z,25.60
2018-07-04T23:23:27.265Z,25.50
2018-07-04T23:26:07.506Z,25.40
2018-07-04T23:28:47.669Z,25.40
2018-07-04T23:31:27.854Z,25.20
2018-07-04T23:36:42.245Z,25.10
2018-07-04T23:39:22.408Z,25.10
2018-07-04T23:42:02.812Z,25.00
2018-07-04T23:44:43.004Z,24.90
2018-07-04T23:47:23.210Z,24.90
2018-07-04T23:50:03.435Z,24.90
2018-07-04T23:52:43.760Z,24.90
2018-07-04T23:55:23.970Z,24.80
2018-07-04T23:58:04.362Z,24.70
